Time;durP1;ratioP1;P1;durP2;ratioP2;P2;SDS_P1;SDS_P2;PMS_P1;PMS_P2;Temp;Humidity;BMP_temperature;BMP_pressure;BME280_temperature;BME280_humidity;BME280_pressure;Samples;Min_cycle;Max_cycle;Signal;HPM_P1;HPM_P2
2023/09/03 00:00:29;;;;;;;2.90;1.93;;;15.70;46.40;;;;;;5073734;28;20414;-69
2023/09/03 00:02:55;;;;;;;3.40;2.70;;;15.70;46.40;;;;;;5055475;28;20554;-69
2023/09/03 00:05:20;;;;;;;7.40;5.80;;;15.70;48.20;;;;;;5073821;28;20227;-70
2023/09/03 00:07:46;;;;;;;3.07;2.70;;;15.70;47.60;;;;;;5055871;28;20230;-70
2023/09/03 00:10:11;;;;;;;4.40;3.37;;;15.70;47.90;;;;;;5055736;28;20178;-69
2023/09/03 00:12:37;;;;;;;4.20;3.13;;;15.80;46.50;;;;;;5054866;28;20174;-69
2023/09/03 00:15:03;;;;;;;11.10;2.97;;;15.80;46.50;;;;;;5074997;28;20194;-69
2023/09/03 00:17:29;;;;;;;3.80;3.37;;;15.70;46.40;;;;;;5071734;28;20279;-68
2023/09/03 00:19:54;;;;;;;5.53;2.97;;;15.70;45.50;;;;;;5055324;28;20983;-70
2023/09/03 00:22:20;;;;;;;3.50;2.30;;;15.70;46.40;;;;;;5072357;28;20580;-70
2023/09/03 00:24:46;;;;;;;4.50;3.10;;;15.60;47.60;;;;;;5072088;28;20766;-70
2023/09/03 00:27:11;;;;;;;3.50;3.20;;;15.50;48.70;;;;;;5072240;28;20671;-70
2023/09/03 00:29:37;;;;;;;3.87;2.60;;;15.60;49.70;;;;;;5072175;28;20184;-71
2023/09/03 00:32:03;;;;;;;4.33;2.70;;;15.60;49.90;;;;;;5071984;28;20177;-70
2023/09/03 00:34:28;;;;;;;4.17;2.40;;;15.50;50.10;;;;;;5072129;28;20244;-70
2023/09/03 00:36:54;;;;;;;3.07;2.40;;;15.50;50.40;;;;;;5071909;28;20413;-70
2023/09/03 00:39:19;;;;;;;4.33;2.30;;;15.50;51.30;;;;;;5072012;28;20193;-70
2023/09/03 00:41:45;;;;;;;3.57;3.00;;;15.50;51.30;;;;;;5071948;28;20205;-70
2023/09/03 00:44:12;;;;;;;3.47;2.60;;;15.60;51.70;;;;;;5072028;28;20212;-70
2023/09/03 00:46:37;;;;;;;12.13;2.63;;;15.50;54.90;;;;;;5072072;28;20412;-70
2023/09/03 00:49:04;;;;;;;3.97;2.17;;;15.50;51.90;;;;;;5071842;28;20537;-70
2023/09/03 00:51:29;;;;;;;3.90;2.77;;;15.50;47.50;;;;;;5071686;28;20181;-70
2023/09/03 00:53:56;;;;;;;3.40;2.57;;;15.50;47.90;;;;;;5071572;28;20459;-70
2023/09/03 00:56:22;;;;;;;3.50;2.57;;;15.50;48.10;;;;;;5071802;28;20174;-70
2023/09/03 00:58:48;;;;;;;4.23;2.50;;;15.40;48.80;;;;;;5071690;28;20455;-70
2023/09/03 01:01:14;;;;;;;3.07;2.47;;;15.40;48.30;;;;;;5071767;28;20419;-70
2023/09/03 01:03:42;;;;;;;4.30;3.10;;;15.40;48.30;;;;;;5071451;28;20242;-70
2023/09/03 01:06:08;;;;;;;3.87;2.47;;;15.40;48.90;;;;;;5071632;28;20408;-70
2023/09/03 01:08:35;;;;;;;3.60;2.07;;;15.40;49.50;;;;;;5053889;28;20782;-70
2023/09/03 01:11:20;;;;;;;3.20;2.50;;;15.30;49.30;;;;;;5055520;28;20178;-70
2023/09/03 01:13:52;;;;;;;6.00;2.90;;;15.30;50.90;;;;;;5091849;28;20427;-69
2023/09/03 01:16:27;;;;;;;2.83;1.50;;;15.20;51.50;;;;;;5091932;28;20783;-70
2023/09/03 01:18:56;;;;;;;4.00;2.40;;;15.30;52.60;;;;;;5091665;28;20454;-70
2023/09/03 01:21:49;;;;;;;4.33;2.70;;;15.30;55.90;;;;;;5091791;28;20408;-69
2023/09/03 01:24:59;;;;;;;4.57;2.97;;;15.30;56.10;;;;;;5073664;28;20506;-70
2023/09/03 01:27:36;;;;;;;3.73;3.37;;;15.20;56.00;;;;;;5073636;28;20484;-70
2023/09/03 01:30:03;;;;;;;3.20;2.80;;;15.20;56.00;;;;;;5094997;28;20414;-70
2023/09/03 01:32:29;;;;;;;3.30;2.37;;;15.20;52.80;;;;;;5077248;28;20415;-69
2023/09/03 01:34:56;;;;;;;3.83;2.37;;;15.20;52.40;;;;;;5095632;28;20483;-70
2023/09/03 01:37:22;;;;;;;3.27;2.37;;;15.10;53.50;;;;;;5077356;28;20491;-70
2023/09/03 01:39:48;;;;;;;3.23;2.00;;;15.10;53.60;;;;;;5095609;28;20454;-71
2023/09/03 01:42:14;;;;;;;3.30;2.50;;;15.10;55.00;;;;;;5095244;28;20407;-69
2023/09/03 01:44:40;;;;;;;3.23;2.40;;;15.20;55.00;;;;;;5095425;28;20938;-69
2023/09/03 01:47:42;;;;;;;9.20;3.20;;;15.10;55.00;;;;;;5096038;28;20318;-70
2023/09/03 01:50:33;;;;;;;5.90;3.27;;;15.10;56.60;;;;;;5095534;28;20417;-69
2023/09/03 01:53:10;;;;;;;3.13;2.60;;;15.10;58.80;;;;;;5077530;28;20491;-70
2023/09/03 01:55:41;;;;;;;4.73;2.80;;;15.10;60.90;;;;;;5095912;28;20421;-69
2023/09/03 01:58:09;;;;;;;4.20;2.37;;;15.10;59.80;;;;;;5095005;28;20466;-68
2023/09/03 02:00:36;;;;;;;3.90;2.80;;;15.10;59.30;;;;;;5095210;28;20738;-69
2023/09/03 02:03:03;;;;;;;5.00;3.10;;;15.10;57.60;;;;;;5094703;28;20817;-69
2023/09/03 02:05:29;;;;;;;5.53;2.73;;;15.00;57.80;;;;;;5095170;28;20819;-70
2023/09/03 02:07:54;;;;;;;3.37;2.50;;;15.10;58.10;;;;;;5095129;28;20407;-69
2023/09/03 02:10:20;;;;;;;5.43;2.73;;;15.10;58.90;;;;;;5095024;28;20406;-70
2023/09/03 02:12:45;;;;;;;3.23;2.43;;;15.10;59.50;;;;;;5095268;28;20173;-69
2023/09/03 02:15:11;;;;;;;4.10;2.70;;;15.10;59.60;;;;;;5094875;28;20199;-69
2023/09/03 02:17:36;;;;;;;3.90;2.73;;;15.10;59.50;;;;;;5094715;28;20674;-69
2023/09/03 02:20:03;;;;;;;4.77;3.40;;;15.10;59.90;;;;;;5094763;28;20542;-69
2023/09/03 02:22:29;;;;;;;3.67;2.93;;;15.10;56.00;;;;;;5094492;28;20539;-70
2023/09/03 02:24:54;;;;;;;3.73;2.63;;;15.10;56.40;;;;;;5094636;28;20434;-69
2023/09/03 02:27:20;;;;;;;3.83;2.00;;;15.10;57.20;;;;;;5094594;28;20715;-69
2023/09/03 02:29:45;;;;;;;3.70;2.90;;;15.10;58.40;;;;;;5094545;28;20535;-69
2023/09/03 02:32:11;;;;;;;3.13;2.40;;;15.10;61.70;;;;;;5094227;28;20169;-69
2023/09/03 02:34:37;;;;;;;2.70;2.40;;;15.00;59.70;;;;;;5094450;28;20193;-69
2023/09/03 02:37:03;;;;;;;3.87;2.60;;;15.00;55.80;;;;;;5094420;28;20165;-70
2023/09/03 02:39:29;;;;;;;2.33;2.00;;;15.00;56.70;;;;;;5094408;28;20514;-69
2023/09/03 02:41:54;;;;;;;4.10;2.90;;;15.00;56.90;;;;;;5093232;28;20920;-69
2023/09/03 02:44:20;;;;;;;4.30;2.23;;;15.00;59.10;;;;;;5094240;28;20689;-70
2023/09/03 02:46:45;;;;;;;4.10;2.57;;;15.00;62.00;;;;;;5094195;28;20650;-70
2023/09/03 02:49:11;;;;;;;4.27;2.60;;;15.00;63.20;;;;;;5094185;28;20196;-70
2023/09/03 02:51:40;;;;;;;4.70;3.00;;;15.00;60.90;;;;;;5093960;28;20178;-70
2023/09/03 02:54:06;;;;;;;3.57;2.30;;;15.00;58.80;;;;;;5093968;28;20204;-70
2023/09/03 02:56:32;;;;;;;3.57;2.63;;;14.90;60.70;;;;;;5094005;28;20919;-70
2023/09/03 02:58:57;;;;;;;2.90;2.40;;;14.90;62.40;;;;;;5093918;28;20241;-69
2023/09/03 03:01:23;;;;;;;4.67;2.80;;;14.80;59.10;;;;;;5093905;28;20489;-70
2023/09/03 03:03:49;;;;;;;3.13;2.40;;;14.80;61.60;;;;;;5093838;28;20250;-69
2023/09/03 03:06:15;;;;;;;3.10;2.63;;;14.90;60.60;;;;;;5093888;28;20208;-69
2023/09/03 03:08:41;;;;;;;6.33;2.70;;;14.80;57.60;;;;;;5093894;28;20713;-69
2023/09/03 03:11:12;;;;;;;4.37;2.37;;;14.90;57.70;;;;;;5093739;28;20989;-69
2023/09/03 03:13:42;;;;;;;7.63;3.40;;;14.80;58.80;;;;;;5093477;28;20439;-69
2023/09/03 03:16:09;;;;;;;4.03;2.30;;;14.80;62.00;;;;;;5093659;28;20777;-69
2023/09/03 03:18:36;;;;;;;3.40;2.77;;;14.70;58.00;;;;;;5075732;28;20477;-69
2023/09/03 03:21:20;;;;;;;3.93;2.80;;;14.70;58.10;;;;;;5093508;28;20425;-69
2023/09/03 03:23:48;;;;;;;3.20;2.60;;;14.70;58.70;;;;;;5075191;28;20432;-69
2023/09/03 03:26:14;;;;;;;3.60;2.30;;;14.70;59.00;;;;;;5093538;28;20420;-69
2023/09/03 03:28:39;;;;;;;4.17;2.60;;;14.60;60.40;;;;;;5093679;28;20837;-69
2023/09/03 03:31:12;;;;;;;5.50;3.23;;;14.60;63.20;;;;;;5093389;28;20791;-69
2023/09/03 03:33:39;;;;;;;4.00;2.90;;;14.60;63.90;;;;;;5093012;28;20205;-69
2023/09/03 03:36:06;;;;;;;4.47;2.50;;;14.50;65.40;;;;;;5093044;28;20414;-69
2023/09/03 03:38:32;;;;;;;5.70;2.87;;;14.60;68.60;;;;;;5092302;28;21015;-68
2023/09/03 03:41:15;;;;;;;4.57;2.40;;;14.60;71.40;;;;;;5093314;28;20688;-68
2023/09/03 03:43:43;;;;;;;2.83;1.80;;;14.60;62.60;;;;;;5092935;28;20437;-68
2023/09/03 03:46:10;;;;;;;4.03;2.77;;;14.50;61.60;;;;;;5093164;28;20794;-68
2023/09/03 03:48:36;;;;;;;3.07;2.43;;;14.50;64.30;;;;;;5093131;28;20420;-68
2023/09/03 03:51:03;;;;;;;3.87;2.80;;;14.60;77.10;;;;;;5093073;28;20472;-68
2023/09/03 03:53:29;;;;;;;3.23;2.00;;;14.50;67.20;;;;;;5092535;28;20451;-68
2023/09/03 03:56:09;;;;;;;4.80;2.80;;;14.50;66.80;;;;;;5093006;28;20947;-68
2023/09/03 03:58:36;;;;;;;2.97;2.33;;;14.50;67.70;;;;;;5092896;28;20465;-68
2023/09/03 04:01:17;;;;;;;3.03;2.30;;;14.50;68.80;;;;;;5092818;28;20414;-68
2023/09/03 04:03:44;;;;;;;6.50;2.80;;;14.40;70.70;;;;;;5092560;28;20427;-68
2023/09/03 04:06:10;;;;;;;4.93;2.27;;;14.40;75.00;;;;;;5092764;28;20408;-68
2023/09/03 04:08:38;;;;;;;3.93;2.83;;;14.50;73.20;;;;;;5092796;28;20422;-68
2023/09/03 04:11:08;;;;;;;3.80;2.93;;;14.50;68.20;;;;;;5092693;28;20263;-68
2023/09/03 04:13:35;;;;;;;5.90;2.80;;;14.50;69.60;;;;;;5092431;28;20453;-68
2023/09/03 04:16:05;;;;;;;3.20;2.57;;;14.50;69.30;;;;;;5074511;28;20423;-68
2023/09/03 04:18:30;;;;;;;6.57;2.53;;;14.60;69.80;;;;;;5092511;28;20957;-68
2023/09/03 04:20:57;;;;;;;4.53;2.10;;;14.60;70.60;;;;;;5092702;28;20415;-68
2023/09/03 04:23:26;;;;;;;3.77;2.60;;;14.60;69.70;;;;;;5092158;28;20196;-68
2023/09/03 04:25:52;;;;;;;2.77;2.10;;;14.50;69.10;;;;;;5092441;28;20406;-68
2023/09/03 04:28:18;;;;;;;4.13;2.93;;;14.50;70.50;;;;;;5092302;28;20920;-68
2023/09/03 04:30:44;;;;;;;4.23;2.60;;;14.60;70.60;;;;;;5092362;28;20414;-68
2023/09/03 04:33:10;;;;;;;5.07;2.17;;;14.60;70.60;;;;;;5092124;28;20506;-68
2023/09/03 04:35:36;;;;;;;3.20;2.50;;;14.60;69.20;;;;;;5092311;28;20177;-68
2023/09/03 04:38:02;;;;;;;4.80;2.87;;;14.60;70.10;;;;;;5092214;28;20189;-68
2023/09/03 04:40:31;;;;;;;4.03;2.73;;;14.60;69.30;;;;;;5092651;28;20417;-68
2023/09/03 04:42:57;;;;;;;4.07;3.10;;;14.60;68.70;;;;;;5091837;28;20747;-68
2023/09/03 04:45:23;;;;;;;3.17;2.37;;;14.60;68.10;;;;;;5092118;28;20401;-69
2023/09/03 04:47:48;;;;;;;3.30;2.33;;;14.60;68.20;;;;;;5092151;28;20263;-69
2023/09/03 04:50:14;;;;;;;2.50;1.70;;;14.70;67.30;;;;;;5092412;28;20182;-69
2023/09/03 04:52:44;;;;;;;4.50;2.60;;;14.70;66.90;;;;;;5091797;28;20177;-70
2023/09/03 04:55:11;;;;;;;3.67;2.10;;;14.70;67.00;;;;;;5073755;28;20231;-70
2023/09/03 04:57:36;;;;;;;5.03;2.70;;;14.70;66.40;;;;;;5091828;28;20458;-70
2023/09/03 05:00:03;;;;;;;4.30;2.60;;;14.70;66.80;;;;;;5091950;28;20415;-70
2023/09/03 05:02:29;;;;;;;4.33;2.73;;;14.80;67.10;;;;;;5091742;28;20634;-70
2023/09/03 05:04:55;;;;;;;8.13;2.80;;;14.80;68.10;;;;;;5097251;28;20426;-70
2023/09/03 05:07:20;;;;;;;4.70;2.73;;;14.80;66.90;;;;;;5098693;28;20234;-70
2023/09/03 05:09:46;;;;;;;3.37;2.07;;;14.90;67.40;;;;;;5098615;28;20653;-70
2023/09/03 05:12:11;;;;;;;3.27;1.83;;;14.90;66.20;;;;;;5098351;28;20181;-71
2023/09/03 05:14:37;;;;;;;4.00;2.20;;;14.90;65.80;;;;;;5080266;28;20680;-70
2023/09/03 05:17:02;;;;;;;3.80;2.33;;;14.90;64.10;;;;;;5098527;28;20177;-70
2023/09/03 05:19:28;;;;;;;3.00;2.07;;;15.00;64.70;;;;;;5098590;28;20182;-70
2023/09/03 05:21:53;;;;;;;3.90;2.43;;;15.10;63.40;;;;;;5072622;28;20184;-70
2023/09/03 05:24:19;;;;;;;3.43;1.70;;;15.20;62.60;;;;;;5074302;28;20251;-70
2023/09/03 05:26:44;;;;;;;4.00;2.50;;;15.20;62.40;;;;;;5073932;28;20178;-70
2023/09/03 05:29:10;;;;;;;4.90;2.20;;;15.30;61.90;;;;;;5078277;28;20529;-69
2023/09/03 05:31:35;;;;;;;3.13;2.37;;;15.40;61.10;;;;;;5077959;28;20642;-70
2023/09/03 05:34:02;;;;;;;3.30;2.30;;;15.60;58.70;;;;;;5078205;28;20311;-70
2023/09/03 05:36:27;;;;;;;2.93;1.87;;;15.70;57.30;;;;;;5078045;28;20185;-69
2023/09/03 05:38:53;;;;;;;8.80;2.20;;;16.00;56.70;;;;;;5078064;28;20463;-68
2023/09/03 05:41:18;;;;;;;4.50;2.67;;;16.30;52.80;;;;;;5078264;28;20177;-68
2023/09/03 05:43:44;;;;;;;3.90;2.07;;;16.70;48.70;;;;;;5077816;28;20677;-68
2023/09/03 05:46:09;;;;;;;3.30;1.90;;;17.00;45.20;;;;;;5078088;28;20177;-68
2023/09/03 05:48:35;;;;;;;3.93;2.60;;;17.50;40.90;;;;;;5078094;28;20181;-69
2023/09/03 05:51:05;;;;;;;2.83;2.07;;;17.90;38.00;;;;;;5078082;28;20593;-69
2023/09/03 05:53:32;;;;;;;3.43;2.00;;;18.60;34.10;;;;;;5077467;28;20209;-69
2023/09/03 05:56:10;;;;;;;3.17;2.27;;;19.10;30.00;;;;;;5078092;28;20403;-69
2023/09/03 05:58:36;;;;;;;2.50;1.20;;;19.50;27.00;;;;;;5077840;28;21011;-69
2023/09/03 06:01:04;;;;;;;3.77;1.70;;;19.80;25.00;;;;;;5077954;28;20821;-69
2023/09/03 06:03:29;;;;;;;6.70;2.60;;;19.80;24.20;;;;;;5077582;28;20503;-69
2023/09/03 06:05:55;;;;;;;3.37;2.33;;;19.90;23.90;;;;;;5077941;28;20487;-69
2023/09/03 06:08:20;;;;;;;3.17;1.90;;;19.90;24.20;;;;;;5077881;28;20174;-69
2023/09/03 06:10:46;;;;;;;4.37;2.10;;;20.10;23.20;;;;;;5078018;28;20174;-69
2023/09/03 06:13:11;;;;;;;5.60;2.10;;;20.40;22.20;;;;;;5076057;28;20174;-69
2023/09/03 06:15:37;;;;;;;3.47;2.00;;;20.50;21.30;;;;;;5069188;28;20548;-70
2023/09/03 06:18:02;;;;;;;5.33;2.90;;;20.60;20.30;;;;;;5074373;28;20201;-69
2023/09/03 06:20:28;;;;;;;7.40;2.17;;;20.60;20.70;;;;;;5063842;28;20190;-68
2023/09/03 06:22:54;;;;;;;3.60;1.97;;;20.50;20.30;;;;;;5054102;28;20225;-69
2023/09/03 06:25:19;;;;;;;3.43;2.97;;;20.40;21.20;;;;;;5068633;28;20197;-69
2023/09/03 06:27:45;;;;;;;4.83;2.03;;;20.40;21.20;;;;;;5074075;28;20188;-69
2023/09/03 06:30:11;;;;;;;2.77;1.53;;;20.70;20.70;;;;;;5074133;28;20213;-69
2023/09/03 06:32:37;;;;;;;3.53;2.40;;;21.00;19.40;;;;;;5071485;28;20521;-69
2023/09/03 06:35:04;;;;;;;2.47;2.23;;;21.30;18.50;;;;;;5056015;28;20657;-69
2023/09/03 06:37:29;;;;;;;3.27;2.33;;;21.60;17.40;;;;;;5073889;28;20459;-69
2023/09/03 06:39:55;;;;;;;2.93;2.23;;;21.90;16.80;;;;;;5074175;28;20405;-68
2023/09/03 06:42:21;;;;;;;3.40;2.00;;;22.10;15.30;;;;;;5073638;28;20636;-69
2023/09/03 06:44:46;;;;;;;3.03;1.60;;;22.50;14.60;;;;;;5056167;28;20213;-70
2023/09/03 06:47:12;;;;;;;4.47;2.97;;;22.90;12.70;;;;;;5074155;28;20408;-70
2023/09/03 06:49:37;;;;;;;4.90;2.73;;;23.00;12.60;;;;;;5074063;28;20257;-70
2023/09/03 06:52:03;;;;;;;2.83;1.80;;;23.20;11.60;;;;;;5073555;28;20268;-70
2023/09/03 06:54:29;;;;;;;4.27;2.13;;;23.40;12.70;;;;;;5073671;28;20248;-70
2023/09/03 06:56:54;;;;;;;3.33;2.13;;;24.00;10.30;;;;;;5055470;28;20191;-69
2023/09/03 06:59:23;;;;;;;2.93;2.00;;;24.30;9.40;;;;;;5053490;28;20178;-69
2023/09/03 07:01:49;;;;;;;3.87;2.17;;;24.90;7.50;;;;;;5053585;28;20174;-70
2023/09/03 07:04:15;;;;;;;4.13;2.20;;;25.40;6.60;;;;;;5073711;28;20471;-70
2023/09/03 07:06:41;;;;;;;4.33;2.50;;;25.80;5.90;;;;;;5073486;28;20440;-69
2023/09/03 07:09:06;;;;;;;3.63;2.03;;;25.30;6.50;;;;;;5073375;28;20182;-70
2023/09/03 07:11:32;;;;;;;4.03;2.13;;;25.10;6.40;;;;;;5073001;28;20292;-70
2023/09/03 07:13:57;;;;;;;2.93;2.20;;;25.50;5.90;;;;;;5073377;28;20202;-70
2023/09/03 07:16:23;;;;;;;3.07;1.83;;;25.90;5.10;;;;;;5073999;28;20264;-69
2023/09/03 07:18:49;;;;;;;2.23;1.70;;;25.80;4.50;;;;;;5073157;28;20198;-69
2023/09/03 07:21:14;;;;;;;4.60;2.20;;;25.90;4.20;;;;;;5055285;28;20173;-69
2023/09/03 07:23:40;;;;;;;2.57;2.37;;;25.90;4.40;;;;;;5073236;28;20666;-69
2023/09/03 07:26:08;;;;;;;2.70;2.33;;;25.50;5.10;;;;;;5073210;28;20574;-69
2023/09/03 07:28:34;;;;;;;3.53;2.33;;;25.40;5.00;;;;;;5072903;28;20173;-69
2023/09/03 07:31:00;;;;;;;4.80;2.50;;;25.20;5.00;;;;;;5073212;28;20423;-69
2023/09/03 07:33:25;;;;;;;5.20;2.20;;;24.70;6.00;;;;;;5072749;28;20436;-69
2023/09/03 07:35:51;;;;;;;3.37;2.50;;;24.70;6.20;;;;;;5072778;28;20209;-69
2023/09/03 07:38:17;;;;;;;4.27;3.20;;;24.70;6.60;;;;;;5072962;28;20693;-69
2023/09/03 07:40:43;;;;;;;3.20;2.27;;;24.30;6.90;;;;;;5072928;28;20174;-69
2023/09/03 07:43:09;;;;;;;3.03;2.60;;;24.00;7.80;;;;;;5072544;28;20917;-69
2023/09/03 07:45:34;;;;;;;3.60;2.93;;;23.70;9.00;;;;;;5072797;28;20257;-69
2023/09/03 07:48:00;;;;;;;3.57;2.20;;;23.80;9.40;;;;;;5054936;28;20181;-69
2023/09/03 07:50:28;;;;;;;4.23;3.03;;;23.80;9.20;;;;;;5072789;28;20190;-70
2023/09/03 07:52:53;;;;;;;5.30;3.33;;;23.70;8.70;;;;;;5072177;28;20189;-69
2023/09/03 07:55:19;;;;;;;6.17;3.00;;;23.30;10.10;;;;;;5073162;28;20456;-70
2023/09/03 07:57:44;;;;;;;2.70;2.30;;;23.10;11.80;;;;;;5072522;28;20206;-70
2023/09/03 08:00:10;;;;;;;4.23;3.40;;;23.50;11.70;;;;;;5072635;28;20689;-70
2023/09/03 08:02:36;;;;;;;4.13;3.00;;;24.10;9.50;;;;;;5072092;28;20186;-70
2023/09/03 08:05:01;;;;;;;3.33;2.30;;;24.30;9.10;;;;;;5072472;28;20420;-70
2023/09/03 08:07:27;;;;;;;2.97;2.17;;;24.40;9.10;;;;;;5072746;28;20182;-70
2023/09/03 08:09:53;;;;;;;10.23;3.47;;;25.20;7.30;;;;;;5072515;28;20346;-70
2023/09/03 08:12:18;;;;;;;2.83;2.33;;;25.60;5.50;;;;;;5072214;28;20185;-70
2023/09/03 08:14:46;;;;;;;3.70;2.70;;;26.30;5.40;;;;;;5072214;28;20288;-70
2023/09/03 08:17:11;;;;;;;2.87;2.57;;;27.30;2.90;;;;;;5072285;28;20170;-70
2023/09/03 08:19:37;;;;;;;4.43;3.73;;;27.80;1.10;;;;;;5072463;28;20776;-70
2023/09/03 08:22:03;;;;;;;5.33;3.37;;;28.90;1.00;;;;;;5054171;28;20535;-70
2023/09/03 08:24:28;;;;;;;4.63;3.57;;;28.60;1.00;;;;;;5072036;28;20251;-70
2023/09/03 08:26:54;;;;;;;4.50;3.60;;;28.90;1.00;;;;;;5072539;28;20251;-70
2023/09/03 08:29:19;;;;;;;4.20;3.23;;;28.60;1.00;;;;;;5072583;28;20586;-69
2023/09/03 08:31:45;;;;;;;3.23;2.70;;;28.20;1.00;;;;;;5072335;28;20178;-70
2023/09/03 08:34:11;;;;;;;5.03;3.43;;;28.00;1.00;;;;;;5071897;28;20272;-70
2023/09/03 08:36:36;;;;;;;3.73;3.40;;;28.50;1.00;;;;;;5072050;28;20231;-70
2023/09/03 08:39:02;;;;;;;3.33;3.00;;;29.10;1.00;;;;;;5071248;28;20214;-70
2023/09/03 08:41:31;;;;;;;8.23;3.73;;;29.90;1.00;;;;;;5071813;28;20245;-69
2023/09/03 08:44:02;;;;;;;4.60;3.47;;;29.80;1.00;;;;;;5071749;28;20204;-69
2023/09/03 08:46:30;;;;;;;4.40;3.97;;;30.00;1.00;;;;;;5071887;28;20760;-69
2023/09/03 08:48:57;;;;;;;4.20;3.80;;;29.40;1.00;;;;;;5071932;28;20479;-70
2023/09/03 08:51:24;;;;;;;5.03;3.43;;;28.70;1.00;;;;;;5071862;28;20413;-70
2023/09/03 08:53:51;;;;;;;3.73;3.43;;;27.40;1.00;;;;;;5071275;28;20464;-70
2023/09/03 08:56:17;;;;;;;3.77;3.00;;;26.60;2.10;;;;;;5071738;28;20466;-70
2023/09/03 08:58:42;;;;;;;4.30;3.17;;;26.00;3.30;;;;;;5053774;28;20506;-70
2023/09/03 09:01:12;;;;;;;3.40;2.90;;;25.90;4.60;;;;;;5071746;28;20174;-70
2023/09/03 09:03:38;;;;;;;3.40;2.80;;;25.60;5.00;;;;;;5071196;28;20194;-70
2023/09/03 09:06:07;;;;;;;3.67;3.07;;;25.30;5.50;;;;;;5053914;28;20477;-69
2023/09/03 09:08:33;;;;;;;3.97;3.00;;;25.10;6.40;;;;;;5071707;28;20413;-69
2023/09/03 09:11:04;;;;;;;2.90;2.50;;;24.90;7.20;;;;;;5072454;28;20414;-70
2023/09/03 09:13:35;;;;;;;5.23;3.03;;;24.60;8.00;;;;;;5053371;28;20529;-69
2023/09/03 09:16:01;;;;;;;3.57;3.17;;;24.60;8.30;;;;;;5071854;28;20409;-69
2023/09/03 09:18:26;;;;;;;5.80;2.80;;;24.80;8.80;;;;;;5071881;28;20466;-69
2023/09/03 09:20:56;;;;;;;5.13;3.07;;;24.70;7.50;;;;;;5071930;28;20174;-70
2023/09/03 09:23:22;;;;;;;5.10;2.87;;;24.60;7.80;;;;;;5071104;28;20205;-69
2023/09/03 09:25:48;;;;;;;3.27;2.67;;;24.80;7.30;;;;;;5071878;28;20821;-69
2023/09/03 09:28:14;;;;;;;5.70;3.17;;;24.80;7.50;;;;;;5071761;28;20412;-70
2023/09/03 09:30:56;;;;;;;3.40;2.90;;;24.50;7.20;;;;;;5071709;28;20657;-70
2023/09/03 09:33:22;;;;;;;5.20;2.90;;;24.20;9.30;;;;;;5071211;28;20236;-70
2023/09/03 09:35:48;;;;;;;7.50;2.53;;;24.50;10.00;;;;;;5071780;28;20941;-69
2023/09/03 09:38:14;;;;;;;3.90;3.10;;;24.90;8.70;;;;;;5071572;28;20558;-70
2023/09/03 09:40:40;;;;;;;4.87;3.80;;;25.30;8.00;;;;;;5053512;28;20412;-70
2023/09/03 09:43:09;;;;;;;3.00;2.33;;;25.40;7.80;;;;;;5071003;28;20416;-70
2023/09/03 09:46:04;;;;;;;3.47;2.90;;;25.30;8.60;;;;;;5071401;28;20181;-70
2023/09/03 09:48:30;;;;;;;3.17;2.87;;;25.40;6.60;;;;;;5050003;28;20944;-70
2023/09/03 09:50:55;;;;;;;5.80;3.17;;;25.50;6.60;;;;;;5055918;28;20452;-70
2023/09/03 09:53:26;;;;;;;2.67;2.40;;;25.70;7.60;;;;;;5056830;28;20654;-70
2023/09/03 09:56:03;;;;;;;4.63;3.07;;;25.80;6.80;;;;;;5075085;28;20174;-70
2023/09/03 09:58:39;;;;;;;3.63;2.97;;;25.70;6.80;;;;;;5074788;28;20456;-70
2023/09/03 10:01:05;;;;;;;5.37;3.27;;;25.90;6.20;;;;;;5074710;28;20423;-70
2023/09/03 10:03:49;;;;;;;4.57;3.07;;;25.70;6.80;;;;;;5074599;28;20435;-70
2023/09/03 10:06:17;;;;;;;3.77;2.77;;;25.70;6.80;;;;;;5074826;28;20397;-70
2023/09/03 10:08:44;;;;;;;3.03;2.73;;;25.80;6.50;;;;;;5057083;28;20577;-69
2023/09/03 10:11:10;;;;;;;3.40;2.70;;;25.60;6.20;;;;;;5074561;28;20435;-70
2023/09/03 10:13:39;;;;;;;3.57;2.90;;;25.60;6.70;;;;;;5074448;28;20523;-70
2023/09/03 10:16:06;;;;;;;4.30;2.53;;;25.90;6.90;;;;;;5074604;28;20427;-70
2023/09/03 10:18:38;;;;;;;3.90;3.13;;;25.70;6.70;;;;;;5074600;28;20456;-69
2023/09/03 10:21:07;;;;;;;3.33;3.03;;;25.70;7.40;;;;;;5074647;28;20475;-70
2023/09/03 10:23:37;;;;;;;3.27;2.97;;;26.10;6.80;;;;;;5056422;28;20515;-70
2023/09/03 10:26:04;;;;;;;3.80;2.97;;;26.40;7.10;;;;;;5054589;28;20895;-70
2023/09/03 10:28:33;;;;;;;4.17;3.23;;;26.50;7.10;;;;;;5054433;28;20906;-70
2023/09/03 10:30:58;;;;;;;5.17;3.30;;;26.60;6.80;;;;;;5067345;28;20423;-70
2023/09/03 10:33:24;;;;;;;5.80;3.00;;;26.50;6.70;;;;;;5056057;28;20440;-71
2023/09/03 10:36:15;;;;;;;3.10;2.10;;;26.50;6.20;;;;;;5074262;28;20185;-70
2023/09/03 10:38:41;;;;;;;2.37;2.17;;;26.60;4.40;;;;;;5074336;28;20194;-70
2023/09/03 10:41:17;;;;;;;3.20;2.53;;;26.50;3.80;;;;;;5074020;28;20416;-70
2023/09/03 10:43:43;;;;;;;3.20;2.23;;;26.20;3.70;;;;;;5073824;28;20436;-70
2023/09/03 10:46:09;;;;;;;3.30;2.40;;;26.20;3.70;;;;;;5074226;28;20409;-70
2023/09/03 10:48:35;;;;;;;2.30;2.07;;;26.20;3.30;;;;;;5074405;28;20798;-69
2023/09/03 10:51:01;;;;;;;2.57;2.37;;;26.10;3.30;;;;;;5055943;28;20182;-70
2023/09/03 10:53:34;;;;;;;2.60;2.40;;;26.20;2.30;;;;;;5073610;28;20868;-70
2023/09/03 10:56:15;;;;;;;2.57;2.33;;;26.10;3.00;;;;;;5055943;28;20431;-70
2023/09/03 10:58:59;;;;;;;3.20;2.93;;;26.10;3.10;;;;;;5073857;28;20572;-70
2023/09/03 11:01:32;;;;;;;2.97;2.63;;;26.20;2.70;;;;;;5054929;28;20473;-70
2023/09/03 11:04:03;;;;;;;5.10;3.07;;;26.40;3.20;;;;;;5073647;28;20425;-70
2023/09/03 11:06:35;;;;;;;3.77;2.00;;;26.40;2.40;;;;;;5073326;28;20905;-70
2023/09/03 11:09:04;;;;;;;2.57;2.07;;;26.50;2.40;;;;;;5073802;28;20451;-70
2023/09/03 11:11:33;;;;;;;3.20;2.40;;;26.80;1.70;;;;;;5055477;28;20443;-70
2023/09/03 11:13:59;;;;;;;3.10;2.57;;;27.00;1.00;;;;;;5073433;28;20436;-70
2023/09/03 11:16:36;;;;;;;3.40;2.27;;;27.00;1.00;;;;;;5069762;28;20432;-70
2023/09/03 11:19:06;;;;;;;3.23;2.93;;;26.80;1.00;;;;;;5045409;28;20488;-70
2023/09/03 11:21:32;;;;;;;3.73;2.23;;;26.90;1.40;;;;;;5053238;28;20467;-70
2023/09/03 11:24:01;;;;;;;3.20;2.80;;;27.10;1.00;;;;;;5053336;28;20846;-69
2023/09/03 11:26:27;;;;;;;5.33;2.37;;;26.80;1.00;;;;;;5037093;28;20178;-69
2023/09/03 11:28:53;;;;;;;3.73;3.00;;;26.90;1.00;;;;;;5073233;28;20755;-70
2023/09/03 11:31:19;;;;;;;2.53;2.33;;;27.00;1.30;;;;;;5073022;28;20431;-70
2023/09/03 11:33:44;;;;;;;2.90;2.60;;;27.10;1.00;;;;;;5071975;28;20194;-70
2023/09/03 11:36:10;;;;;;;3.30;3.00;;;27.20;1.00;;;;;;5053031;28;20417;-70
2023/09/03 11:38:36;;;;;;;5.33;2.50;;;27.30;1.00;;;;;;5072210;28;20217;-70
2023/09/03 11:41:02;;;;;;;2.70;2.50;;;27.40;1.00;;;;;;5072992;28;20459;-72
2023/09/03 11:43:29;;;;;;;3.03;2.73;;;27.60;1.00;;;;;;5072618;28;20268;-72
2023/09/03 11:45:55;;;;;;;3.30;2.80;;;27.80;1.00;;;;;;5072777;28;20920;-71
2023/09/03 11:48:28;;;;;;;3.03;2.27;;;27.40;1.00;;;;;;5072042;28;20503;-71
2023/09/03 11:50:54;;;;;;;2.70;2.50;;;27.50;1.00;;;;;;5072581;28;20170;-71
2023/09/03 11:53:21;;;;;;;2.80;2.40;;;27.70;1.00;;;;;;5072573;28;20447;-71
2023/09/03 11:55:52;;;;;;;3.90;2.80;;;27.80;1.00;;;;;;5072729;28;20412;-71
2023/09/03 11:58:21;;;;;;;2.60;2.30;;;28.10;1.00;;;;;;5072228;28;20463;-71
2023/09/03 12:00:47;;;;;;;2.50;2.30;;;28.10;1.00;;;;;;5072610;28;20439;-71
2023/09/03 12:03:14;;;;;;;6.40;2.43;;;27.90;1.00;;;;;;5072126;28;20415;-72
2023/09/03 12:05:39;;;;;;;2.43;2.23;;;28.00;1.00;;;;;;5072491;28;20513;-71
2023/09/03 12:08:06;;;;;;;3.13;2.20;;;27.90;1.00;;;;;;5054233;28;20514;-71
2023/09/03 12:10:32;;;;;;;2.70;2.50;;;27.90;1.00;;;;;;5069958;28;20177;-72
2023/09/03 12:13:03;;;;;;;3.03;2.50;;;27.80;1.00;;;;;;5070499;28;20506;-71
2023/09/03 12:15:31;;;;;;;2.53;2.33;;;27.90;1.00;;;;;;5071491;28;20423;-71
2023/09/03 12:18:10;;;;;;;2.40;2.20;;;28.00;1.00;;;;;;5072231;28;20455;-71
2023/09/03 12:20:35;;;;;;;2.53;2.30;;;27.80;1.00;;;;;;5072095;28;20416;-72
2023/09/03 12:23:15;;;;;;;2.80;2.60;;;27.60;1.00;;;;;;5071508;28;20566;-71
2023/09/03 12:25:41;;;;;;;2.50;2.30;;;27.30;1.00;;;;;;5054067;28;20178;-71
2023/09/03 12:28:08;;;;;;;2.60;2.40;;;27.40;1.00;;;;;;5072245;28;20748;-71
2023/09/03 12:30:57;;;;;;;2.83;2.23;;;27.40;1.00;;;;;;5054291;28;20503;-71
2023/09/03 12:33:24;;;;;;;2.30;2.07;;;27.30;1.00;;;;;;5071750;28;20566;-71
2023/09/03 12:36:21;;;;;;;2.60;2.40;;;27.30;1.00;;;;;;5071801;28;20438;-71
2023/09/03 12:39:04;;;;;;;3.90;2.60;;;27.30;1.00;;;;;;5071775;28;20584;-71
2023/09/03 12:41:35;;;;;;;2.50;2.30;;;27.20;1.00;;;;;;5071878;28;20401;-71
2023/09/03 12:44:06;;;;;;;2.50;2.30;;;27.10;1.00;;;;;;5071620;28;20451;-71
2023/09/03 12:46:33;;;;;;;2.97;2.67;;;27.10;1.00;;;;;;5053780;28;20439;-71
2023/09/03 12:48:58;;;;;;;2.83;2.63;;;27.30;1.00;;;;;;5071809;28;20739;-71
2023/09/03 12:51:24;;;;;;;2.90;2.43;;;27.20;1.00;;;;;;5071980;28;20461;-71
2023/09/03 12:53:49;;;;;;;2.40;2.20;;;27.30;1.00;;;;;;5071147;28;20359;-71